createdAt,value
2023-01-13T06:35:11.934Z,8.70
2023-01-13T06:37:40.627Z,8.45
2023-01-13T06:40:08.578Z,7.83
2023-01-13T06:42:56.034Z,7.53
2023-01-13T06:45:24.264Z,7.70
2023-01-13T06:47:51.931Z,7.90
2023-01-13T06:50:19.517Z,7.10
2023-01-13T06:52:47.091Z,7.60
2023-01-13T06:55:14.396Z,7.50
2023-01-13T06:57:51.603Z,7.20
2023-01-13T07:00:19.260Z,7.80
2023-01-13T07:02:46.637Z,8.27
2023-01-13T07:05:14.128Z,7.73
2023-01-13T07:07:41.846Z,7.50
2023-01-13T07:10:11.341Z,7.27
2023-01-13T07:12:57.110Z,7.23
2023-01-13T07:15:24.678Z,7.43
2023-01-13T07:17:52.040Z,7.40
2023-01-13T07:20:19.756Z,7.40
2023-01-13T07:22:47.281Z,7.33
2023-01-13T07:25:14.671Z,7.47
2023-01-13T07:27:42.086Z,7.23
2023-01-13T07:30:09.738Z,7.03
2023-01-13T07:32:37.055Z,6.90
2023-01-13T07:35:07.443Z,7.20
2023-01-13T07:37:35.787Z,7.53
2023-01-13T07:40:03.567Z,7.57
2023-01-13T07:42:49.701Z,7.17
2023-01-13T07:45:17.028Z,7.10
2023-01-13T07:47:44.365Z,7.13
2023-01-13T07:50:11.860Z,7.60
2023-01-13T07:52:39.276Z,8.03
2023-01-13T07:55:07.828Z,7.07
2023-01-13T07:57:35.172Z,7.63
2023-01-13T08:00:02.702Z,7.40
2023-01-13T08:02:32.360Z,7.63
2023-01-13T08:04:59.974Z,7.90
2023-01-13T08:07:27.525Z,7.67
2023-01-13T08:09:54.951Z,7.30
2023-01-13T08:12:41.309Z,6.90
2023-01-13T08:15:23.948Z,7.33
2023-01-13T08:17:51.339Z,7.10
2023-01-13T08:20:19.231Z,7.27
2023-01-13T08:22:46.631Z,6.97
2023-01-13T08:25:14.344Z,7.67
2023-01-13T08:27:41.808Z,7.00
2023-01-13T08:30:09.570Z,7.10
2023-01-13T08:32:36.961Z,7.27
2023-01-13T08:35:04.403Z,7.87
2023-01-13T08:37:31.773Z,7.60
2023-01-13T08:39:59.137Z,7.17
2023-01-13T08:42:27.796Z,7.53
2023-01-13T08:44:55.425Z,8.13
2023-01-13T08:47:22.800Z,7.40
2023-01-13T08:49:50.259Z,7.30
2023-01-13T08:52:17.809Z,7.87
2023-01-13T08:54:45.535Z,7.07
2023-01-13T08:57:13.557Z,7.50
2023-01-13T08:59:40.911Z,7.53
2023-01-13T09:02:15.413Z,7.40
2023-01-13T09:04:55.458Z,7.57
2023-01-13T09:07:22.787Z,7.50
2023-01-13T09:09:50.127Z,7.73
2023-01-13T09:12:36.103Z,7.20
2023-01-13T09:15:03.774Z,7.10
2023-01-13T09:17:31.271Z,6.80
2023-01-13T09:19:58.577Z,7.93
2023-01-13T09:22:27.306Z,7.43
2023-01-13T09:24:55.360Z,7.00
2023-01-13T09:27:23.224Z,7.23
2023-01-13T09:29:50.797Z,6.93
2023-01-13T09:32:18.127Z,7.00
2023-01-13T09:35:00.884Z,6.90
2023-01-13T09:37:34.166Z,7.50
2023-01-13T09:40:02.156Z,7.47
2023-01-13T09:43:06.587Z,6.90
2023-01-13T09:45:38.513Z,8.17
2023-01-13T09:48:14.335Z,8.40
2023-01-13T09:50:41.688Z,7.13
2023-01-13T09:53:12.945Z,6.97
2023-01-13T09:55:40.485Z,6.67
2023-01-13T09:58:13.169Z,6.80
2023-01-13T10:00:44.737Z,7.07
2023-01-13T10:03:21.326Z,7.10
2023-01-13T10:05:51.546Z,6.80
2023-01-13T10:08:18.897Z,6.70
2023-01-13T10:10:48.737Z,6.40
2023-01-13T10:13:20.777Z,6.40
2023-01-13T10:15:51.095Z,6.50
2023-01-13T10:18:38.728Z,6.30
2023-01-13T10:21:09.206Z,6.80
2023-01-13T10:23:38.022Z,6.47
2023-01-13T10:26:25.396Z,6.63
2023-01-13T10:28:53.997Z,7.17
2023-01-13T10:31:22.264Z,6.80
2023-01-13T10:33:49.735Z,6.37
2023-01-13T10:36:21.517Z,7.13
2023-01-13T10:38:50.079Z,6.43
2023-01-13T10:41:20.539Z,6.80
2023-01-13T10:44:13.933Z,6.90
2023-01-13T10:46:57.921Z,6.93
2023-01-13T10:49:32.751Z,6.73
2023-01-13T10:52:00.904Z,6.23
2023-01-13T10:54:28.616Z,7.13
2023-01-13T10:57:16.044Z,6.20
2023-01-13T10:59:43.434Z,6.53
2023-01-13T11:02:31.035Z,6.63
2023-01-13T11:05:02.867Z,7.30
2023-01-13T11:07:32.659Z,6.93
2023-01-13T11:10:06.757Z,6.70
2023-01-13T11:12:35.465Z,7.00
2023-01-13T11:15:05.320Z,7.90
2023-01-13T11:17:45.578Z,6.80
2023-01-13T11:20:13.250Z,7.50
2023-01-13T11:22:46.030Z,6.77
2023-01-13T11:25:20.886Z,7.13
2023-01-13T11:28:01.045Z,6.50
2023-01-13T11:30:39.489Z,7.07
2023-01-13T11:33:16.330Z,7.13
2023-01-13T11:35:57.280Z,7.30
2023-01-13T11:38:30.752Z,7.30
2023-01-13T11:41:01.496Z,7.20
2023-01-13T11:43:28.952Z,7.53
2023-01-13T11:45:58.139Z,6.90
2023-01-13T11:48:27.174Z,7.03
2023-01-13T11:50:55.207Z,7.40
2023-01-13T11:53:36.601Z,6.83
2023-01-13T11:56:14.542Z,7.67
2023-01-13T11:58:50.319Z,7.43
2023-01-13T12:01:28.876Z,7.17
2023-01-13T12:04:05.571Z,7.63
2023-01-13T12:06:33.115Z,7.07
2023-01-13T12:09:03.257Z,7.07
2023-01-13T12:11:56.645Z,7.47
2023-01-13T12:14:36.858Z,7.67
2023-01-13T12:17:07.043Z,7.53
2023-01-13T12:19:34.481Z,7.57
2023-01-13T12:22:08.700Z,7.27
2023-01-13T12:24:39.081Z,7.23
2023-01-13T12:27:16.618Z,7.33
2023-01-13T12:29:45.253Z,7.53
2023-01-13T12:32:15.181Z,7.33
2023-01-13T12:35:18.178Z,7.43
2023-01-13T12:37:45.816Z,7.30
2023-01-13T12:40:13.415Z,7.33
2023-01-13T12:43:05.249Z,7.60
2023-01-13T12:45:33.981Z,7.50
2023-01-13T12:48:02.061Z,7.53
2023-01-13T12:50:29.663Z,7.50
2023-01-13T12:52:58.261Z,7.90
2023-01-13T12:55:35.890Z,7.50
2023-01-13T12:58:09.218Z,7.67
2023-01-13T13:00:38.234Z,7.83
2023-01-13T13:03:14.246Z,7.20
2023-01-13T13:06:00.258Z,7.70
2023-01-13T13:08:46.351Z,7.53
2023-01-13T13:11:31.939Z,7.87
2023-01-13T13:14:03.577Z,9.10
2023-01-13T13:16:30.974Z,7.47
2023-01-13T13:19:17.418Z,7.10
2023-01-13T13:22:03.513Z,7.07
2023-01-13T13:24:30.978Z,8.07
2023-01-13T13:26:58.360Z,7.73
2023-01-13T13:29:48.776Z,6.83
2023-01-13T13:32:19.150Z,7.40
2023-01-13T13:35:09.010Z,7.27
2023-01-13T13:38:09.848Z,7.23
2023-01-13T13:41:06.351Z,7.00
2023-01-13T13:43:58.450Z,6.90
2023-01-13T13:46:44.317Z,7.27
2023-01-13T13:49:12.245Z,9.03
2023-01-13T13:51:52.233Z,7.20
2023-01-13T13:54:21.963Z,7.30
2023-01-13T13:56:50.424Z,7.17
2023-01-13T13:59:25.406Z,7.13
2023-01-13T14:02:01.762Z,7.30
2023-01-13T14:04:31.223Z,6.90
2023-01-13T14:06:59.668Z,7.13
2023-01-13T14:09:28.699Z,6.70
2023-01-13T14:11:57.030Z,6.70
2023-01-13T14:14:25.149Z,7.13
2023-01-13T14:16:54.954Z,7.47
2023-01-13T14:19:31.417Z,7.47
2023-01-13T14:22:01.283Z,6.90
2023-01-13T14:24:30.052Z,6.70
2023-01-13T14:27:11.038Z,6.07
2023-01-13T14:29:40.091Z,6.33
2023-01-13T14:32:08.127Z,6.50
2023-01-13T14:34:36.575Z,6.90
2023-01-13T14:37:04.243Z,6.70
2023-01-13T14:39:36.382Z,6.80
2023-01-13T14:42:04.787Z,6.97
2023-01-13T14:44:34.918Z,6.70
2023-01-13T14:47:18.004Z,7.00
2023-01-13T14:50:06.749Z,6.53
2023-01-13T14:52:35.800Z,6.87
2023-01-13T14:55:10.158Z,6.93
2023-01-13T14:57:39.619Z,7.23
2023-01-13T15:00:19.903Z,6.77
2023-01-13T15:02:59.391Z,7.13
2023-01-13T15:05:26.777Z,7.07
2023-01-13T15:08:04.231Z,7.77
2023-01-13T15:10:38.440Z,7.47
2023-01-13T15:13:07.396Z,7.63
2023-01-13T15:15:35.885Z,6.67
2023-01-13T15:18:06.555Z,6.97
2023-01-13T15:20:33.916Z,6.90
2023-01-13T15:23:01.425Z,7.00
2023-01-13T15:25:36.373Z,7.40
2023-01-13T15:28:04.847Z,8.70
2023-01-13T15:30:32.511Z,8.07
2023-01-13T15:32:59.949Z,7.77
2023-01-13T15:35:28.321Z,7.60
2023-01-13T15:37:56.279Z,7.50
2023-01-13T15:40:25.044Z,7.80
2023-01-13T15:43:11.376Z,7.87
2023-01-13T15:45:57.818Z,7.50
2023-01-13T15:48:26.382Z,7.63
2023-01-13T15:50:53.710Z,7.97
2023-01-13T15:53:21.376Z,7.57
2023-01-13T15:55:51.303Z,8.43
2023-01-13T15:58:20.882Z,9.13
2023-01-13T16:00:48.206Z,8.70
2023-01-13T16:03:15.885Z,8.43
2023-01-13T16:05:43.819Z,8.40
2023-01-13T16:08:21.908Z,8.80
2023-01-13T16:10:50.036Z,9.20
2023-01-13T16:13:18.143Z,8.60
2023-01-13T16:15:47.829Z,8.27
2023-01-13T16:18:24.334Z,9.77
2023-01-13T16:20:55.356Z,9.20
2023-01-13T16:23:22.931Z,9.53
2023-01-13T16:25:51.073Z,9.10
2023-01-13T16:28:28.243Z,8.73
2023-01-13T16:30:55.826Z,8.67
2023-01-13T16:33:22.852Z,11.07
2023-01-13T16:36:12.232Z,8.77
2023-01-13T16:38:37.895Z,9.10
2023-01-13T16:41:05.490Z,8.90
2023-01-13T16:43:32.923Z,12.73
2023-01-13T16:46:00.471Z,14.10
2023-01-13T16:48:28.066Z,9.90
2023-01-13T16:50:56.207Z,9.57
2023-01-13T16:53:23.632Z,9.77
2023-01-13T16:55:51.050Z,9.77
2023-01-13T16:58:20.415Z,10.10
2023-01-13T17:00:48.241Z,10.13
2023-01-13T17:03:15.939Z,10.90
2023-01-13T17:05:49.499Z,10.43
2023-01-13T17:08:18.276Z,9.60
2023-01-13T17:10:46.196Z,10.00
2023-01-13T17:13:17.086Z,9.33
2023-01-13T17:15:45.184Z,10.17
2023-01-13T17:18:13.613Z,9.63
2023-01-13T17:20:41.432Z,9.87
2023-01-13T17:23:08.939Z,10.87
2023-01-13T17:25:36.297Z,15.07
2023-01-13T17:28:03.844Z,10.50
2023-01-13T17:30:31.266Z,10.53
2023-01-13T17:32:58.608Z,10.43
2023-01-13T17:35:26.047Z,11.90
2023-01-13T17:37:53.803Z,11.70
2023-01-13T17:40:21.567Z,11.97
2023-01-13T17:42:48.909Z,12.27
2023-01-13T17:45:16.385Z,12.60
2023-01-13T17:47:43.795Z,13.10
2023-01-13T17:50:11.353Z,12.53
2023-01-13T17:52:38.647Z,12.97
2023-01-13T17:55:06.193Z,13.00
2023-01-13T17:57:35.250Z,13.37
2023-01-13T18:00:02.844Z,13.30
2023-01-13T18:02:39.643Z,13.10
2023-01-13T18:05:07.421Z,13.67
2023-01-13T18:07:34.703Z,14.10
2023-01-13T18:10:02.117Z,13.03
2023-01-13T18:12:29.449Z,13.80
2023-01-13T18:14:56.884Z,14.67
2023-01-13T18:17:24.232Z,15.23
2023-01-13T18:20:10.139Z,15.40
2023-01-13T18:22:55.999Z,15.80
2023-01-13T18:25:42.023Z,15.17
2023-01-13T18:28:09.368Z,16.30
2023-01-13T18:30:36.781Z,16.47
2023-01-13T18:33:04.245Z,16.13
2023-01-13T18:35:31.681Z,16.63
2023-01-13T18:37:59.135Z,15.80
2023-01-13T18:40:26.485Z,15.80
2023-01-13T18:42:58.831Z,16.40
2023-01-13T18:45:27.758Z,16.87
2023-01-13T18:47:56.494Z,16.80
2023-01-13T18:50:24.312Z,16.87
2023-01-13T18:52:52.061Z,16.60
2023-01-13T18:55:19.903Z,16.17
2023-01-13T18:57:47.438Z,16.03
2023-01-13T19:00:17.198Z,16.37
2023-01-13T19:02:44.897Z,17.33
2023-01-13T19:05:12.275Z,16.40
2023-01-13T19:07:39.783Z,16.40
2023-01-13T19:10:09.733Z,16.83
2023-01-13T19:12:37.240Z,17.27
2023-01-13T19:15:04.782Z,16.73
2023-01-13T19:17:33.610Z,16.83
2023-01-13T19:20:01.243Z,16.30
2023-01-13T19:22:30.815Z,17.00
2023-01-13T19:24:58.544Z,16.90
2023-01-13T19:27:27.583Z,18.00
2023-01-13T19:29:58.210Z,17.27
2023-01-13T19:32:25.711Z,17.00
2023-01-13T19:34:55.015Z,16.27
2023-01-13T19:37:22.445Z,16.67
2023-01-13T19:39:50.082Z,16.37
2023-01-13T19:42:37.777Z,16.77
2023-01-13T19:45:24.012Z,15.80
2023-01-13T19:47:51.480Z,15.50
2023-01-13T19:50:18.886Z,16.33
2023-01-13T19:52:46.307Z,16.40
2023-01-13T19:55:13.696Z,21.77
2023-01-13T19:57:41.618Z,16.50
2023-01-13T20:00:09.923Z,14.73
2023-01-13T20:02:47.709Z,15.63
2023-01-13T20:05:20.766Z,15.83
2023-01-13T20:07:48.887Z,16.00
2023-01-13T20:10:17.206Z,14.53
2023-01-13T20:12:44.525Z,14.57
2023-01-13T20:15:12.103Z,14.37
2023-01-13T20:17:41.332Z,13.03
2023-01-13T20:20:09.341Z,12.40
2023-01-13T20:22:37.659Z,12.10
2023-01-13T20:25:05.420Z,11.57
2023-01-13T20:27:32.858Z,10.40
2023-01-13T20:30:00.252Z,10.27
2023-01-13T20:32:27.585Z,10.10
2023-01-13T20:34:55.650Z,10.40
2023-01-13T20:37:26.878Z,9.50
2023-01-13T20:39:55.284Z,9.07
2023-01-13T20:42:32.629Z,9.57
2023-01-13T20:45:01.567Z,8.83
2023-01-13T20:47:29.573Z,8.27
2023-01-13T20:50:00.279Z,8.27
2023-01-13T20:52:28.235Z,7.83
2023-01-13T20:54:57.618Z,7.93
2023-01-13T20:57:25.458Z,7.57
2023-01-13T20:59:53.729Z,7.63
2023-01-13T21:02:24.289Z,7.13
2023-01-13T21:04:52.271Z,7.07
2023-01-13T21:07:21.531Z,7.40
2023-01-13T21:09:48.943Z,6.57
2023-01-13T21:12:35.951Z,7.70
2023-01-13T21:15:17.833Z,7.30
2023-01-13T21:18:08.514Z,7.23
2023-01-13T21:20:42.793Z,7.17
2023-01-13T21:23:11.183Z,7.80
2023-01-13T21:25:42.174Z,7.50
2023-01-13T21:28:12.581Z,7.80
2023-01-13T21:30:40.457Z,7.40
2023-01-13T21:33:08.100Z,7.80
2023-01-13T21:35:38.364Z,7.30
2023-01-13T21:38:05.604Z,7.30
2023-01-13T21:40:33.317Z,7.20
2023-01-13T21:43:19.752Z,7.57
2023-01-13T21:46:07.279Z,7.50
2023-01-13T21:48:37.299Z,8.00
2023-01-13T21:51:05.234Z,7.70
2023-01-13T21:53:39.589Z,7.80
2023-01-13T21:56:08.180Z,7.70
2023-01-13T21:58:35.423Z,7.77
2023-01-13T22:01:04.998Z,7.93
2023-01-13T22:03:56.878Z,7.83
2023-01-13T22:06:28.906Z,7.43
2023-01-13T22:09:01.950Z,7.80
2023-01-13T22:11:34.186Z,7.30
2023-01-13T22:14:10.229Z,7.57
2023-01-13T22:16:50.532Z,7.20
2023-01-13T22:19:19.674Z,7.70
2023-01-13T22:21:47.959Z,7.90
2023-01-13T22:24:18.170Z,7.70
2023-01-13T22:26:45.932Z,7.40
2023-01-13T22:29:13.807Z,7.77
2023-01-13T22:31:41.265Z,7.27
2023-01-13T22:34:11.764Z,7.70
2023-01-13T22:36:40.193Z,7.63
2023-01-13T22:39:08.094Z,7.30
2023-01-13T22:41:35.456Z,7.80
2023-01-13T22:44:03.681Z,7.83
2023-01-13T22:46:30.966Z,7.70
2023-01-13T22:48:58.679Z,6.97
2023-01-13T22:51:33.768Z,6.80
2023-01-13T22:54:37.426Z,6.97
2023-01-13T22:57:05.539Z,7.67
2023-01-13T22:59:33.818Z,8.20
2023-01-13T23:02:04.936Z,7.70
2023-01-13T23:04:34.544Z,8.00
2023-01-13T23:07:03.310Z,7.63
2023-01-13T23:09:31.487Z,8.20
2023-01-13T23:12:06.712Z,8.60
2023-01-13T23:14:40.955Z,10.07
2023-01-13T23:17:14.881Z,7.70
2023-01-13T23:19:42.561Z,8.00
2023-01-13T23:22:22.631Z,7.67
2023-01-13T23:24:54.106Z,9.03
2023-01-13T23:27:26.516Z,7.33
2023-01-13T23:29:56.076Z,8.67
2023-01-13T23:32:26.346Z,8.37
2023-01-13T23:34:55.862Z,8.37
2023-01-13T23:37:25.347Z,7.87
2023-01-13T23:39:53.443Z,8.57
2023-01-13T23:42:26.305Z,8.70
2023-01-13T23:44:53.991Z,9.87
2023-01-13T23:47:21.478Z,8.60
2023-01-13T23:49:51.467Z,8.77
2023-01-13T23:52:19.850Z,9.43
2023-01-13T23:54:46.710Z,10.37
2023-01-13T23:57:15.743Z,10.60
2023-01-13T23:59:46.896Z,8.97
